createdAt,value
2017-11-14T00:00:07.770Z,0.00
2017-11-14T00:01:07.784Z,0.00
2017-11-14T00:02:07.800Z,0.00
2017-11-14T00:03:07.816Z,0.00
2017-11-14T00:04:07.831Z,0.00
2017-11-14T00:05:07.846Z,0.00
2017-11-14T00:06:07.861Z,0.00
2017-11-14T00:07:07.883Z,0.00
2017-11-14T00:08:07.889Z,0.00
2017-11-14T00:09:07.907Z,0.00
2017-11-14T00:10:07.920Z,0.00
2017-11-14T00:11:07.934Z,0.00
2017-11-14T00:12:07.949Z,0.00
2017-11-14T00:13:07.964Z,0.00
2017-11-14T00:14:07.981Z,0.00
2017-11-14T00:15:07.995Z,0.00
2017-11-14T00:16:08.015Z,0.00
2017-11-14T00:17:08.033Z,0.00
2017-11-14T00:18:08.041Z,0.00
2017-11-14T00:19:08.054Z,0.00
2017-11-14T00:20:08.070Z,0.00
2017-11-14T00:21:08.085Z,0.00
2017-11-14T00:22:08.100Z,0.00
2017-11-14T00:23:08.117Z,0.00
2017-11-14T00:24:08.132Z,0.00
2017-11-14T00:25:08.144Z,0.00
2017-11-14T00:26:08.163Z,0.00
2017-11-14T00:27:08.178Z,0.00
2017-11-14T00:28:08.200Z,0.00
2017-11-14T00:29:08.215Z,0.00
2017-11-14T00:30:08.221Z,0.00
2017-11-14T00:31:08.262Z,0.00
2017-11-14T00:32:08.252Z,0.00
2017-11-14T00:33:08.268Z,0.00
2017-11-14T00:34:08.282Z,0.00
2017-11-14T00:35:08.298Z,0.00
2017-11-14T00:36:08.317Z,0.00
2017-11-14T00:37:08.328Z,0.00
2017-11-14T00:38:08.345Z,0.00
2017-11-14T00:39:08.360Z,0.00
2017-11-14T00:40:08.379Z,0.00
2017-11-14T00:41:08.392Z,0.00
2017-11-14T00:42:08.403Z,0.00
2017-11-14T00:43:08.420Z,0.00
2017-11-14T00:44:08.442Z,0.00
2017-11-14T00:45:08.452Z,0.00
2017-11-14T00:46:08.466Z,0.00
2017-11-14T00:47:08.481Z,0.00
2017-11-14T00:48:08.496Z,0.00
2017-11-14T00:49:08.510Z,0.00
2017-11-14T00:50:08.548Z,0.00
2017-11-14T00:51:08.546Z,0.00
2017-11-14T00:52:08.559Z,0.00
2017-11-14T00:53:08.572Z,0.00
2017-11-14T00:54:08.587Z,0.00
2017-11-14T00:55:08.603Z,0.00
2017-11-14T00:56:08.618Z,0.00
2017-11-14T00:57:08.634Z,0.00
2017-11-14T00:58:08.648Z,0.00
2017-11-14T00:59:08.666Z,0.00
2017-11-14T01:00:08.680Z,0.00
2017-11-14T01:01:08.694Z,0.00
2017-11-14T01:02:08.709Z,0.00
2017-11-14T01:03:08.731Z,0.00
2017-11-14T01:04:08.744Z,0.00
2017-11-14T01:05:08.756Z,0.00
2017-11-14T01:06:08.772Z,0.00
2017-11-14T01:07:08.786Z,0.00
2017-11-14T01:08:08.804Z,0.00
2017-11-14T01:09:08.814Z,0.00
2017-11-14T01:10:08.831Z,0.00
2017-11-14T01:11:08.849Z,0.00
2017-11-14T01:12:08.861Z,0.00
2017-11-14T01:13:08.878Z,0.00
2017-11-14T01:14:08.892Z,0.00
2017-11-14T01:15:08.912Z,0.00
2017-11-14T01:16:08.925Z,0.00
2017-11-14T01:17:08.940Z,0.00
2017-11-14T01:18:08.956Z,0.00
2017-11-14T01:19:08.971Z,0.00
2017-11-14T01:20:08.990Z,0.00
2017-11-14T01:21:09.003Z,0.00
2017-11-14T01:22:09.017Z,0.00
2017-11-14T01:23:09.030Z,0.00
2017-11-14T01:24:09.047Z,0.00
2017-11-14T01:25:09.064Z,0.00
2017-11-14T01:26:09.079Z,0.00
2017-11-14T01:27:09.092Z,0.00
2017-11-14T01:28:09.111Z,0.00
2017-11-14T01:29:09.122Z,0.00
2017-11-14T01:30:09.141Z,0.00
2017-11-14T01:31:09.154Z,0.00
2017-11-14T01:32:09.169Z,0.00
2017-11-14T01:33:09.186Z,0.00
2017-11-14T01:34:09.201Z,0.00
2017-11-14T01:35:09.219Z,0.00
2017-11-14T01:36:09.233Z,0.00
2017-11-14T01:37:09.250Z,0.00
2017-11-14T01:38:09.273Z,0.00
2017-11-14T01:39:09.279Z,0.00
2017-11-14T01:40:09.294Z,0.00
2017-11-14T01:41:09.307Z,0.00
2017-11-14T01:42:09.323Z,0.00
2017-11-14T01:43:09.340Z,0.00
2017-11-14T01:44:09.362Z,0.00
2017-11-14T01:45:09.369Z,0.00
2017-11-14T01:46:09.385Z,0.00
2017-11-14T01:47:09.402Z,0.00
2017-11-14T01:48:09.423Z,0.00
2017-11-14T01:49:09.432Z,0.00
2017-11-14T01:50:09.447Z,0.00
2017-11-14T01:51:09.465Z,0.00
2017-11-14T01:52:09.480Z,0.00
2017-11-14T01:53:09.492Z,0.00
2017-11-14T01:54:09.512Z,0.00
2017-11-14T01:55:09.525Z,0.00
2017-11-14T01:56:09.542Z,0.00
2017-11-14T01:57:09.555Z,0.00
2017-11-14T01:58:09.579Z,0.00
2017-11-14T01:59:09.587Z,0.00
2017-11-14T02:00:09.603Z,0.00
2017-11-14T02:01:09.619Z,0.00
2017-11-14T02:02:09.633Z,0.00
2017-11-14T02:03:09.648Z,0.00
2017-11-14T02:04:09.670Z,0.00
2017-11-14T02:05:09.684Z,0.00
2017-11-14T02:06:09.695Z,0.00
2017-11-14T02:07:09.711Z,0.00
2017-11-14T02:08:09.729Z,0.00
2017-11-14T02:09:09.743Z,0.00
2017-11-14T02:10:09.903Z,0.00
2017-11-14T02:11:09.775Z,0.00
2017-11-14T02:12:09.787Z,0.00
2017-11-14T02:13:09.803Z,0.00
2017-11-14T02:14:09.818Z,0.00
2017-11-14T02:15:09.832Z,0.00
2017-11-14T02:16:09.848Z,0.00
2017-11-14T02:17:09.865Z,0.00
2017-11-14T02:18:09.880Z,0.00
2017-11-14T02:19:09.895Z,0.00
2017-11-14T02:20:09.911Z,0.00
2017-11-14T02:21:09.936Z,0.00
2017-11-14T02:22:09.949Z,0.00
2017-11-14T02:23:09.984Z,0.00
2017-11-14T02:24:09.971Z,0.00
2017-11-14T02:25:09.986Z,0.00
2017-11-14T02:26:10.004Z,0.00
2017-11-14T02:27:10.021Z,0.00
2017-11-14T02:28:10.036Z,0.00
2017-11-14T02:29:10.048Z,0.00
2017-11-14T02:30:10.064Z,0.00
2017-11-14T02:31:10.078Z,0.00
2017-11-14T02:32:10.100Z,0.00
2017-11-14T02:33:10.117Z,0.00
2017-11-14T02:34:10.127Z,0.00
2017-11-14T02:35:10.143Z,0.00
2017-11-14T02:36:10.159Z,0.00
2017-11-14T02:37:10.170Z,0.00
2017-11-14T02:38:10.186Z,0.00
2017-11-14T02:39:10.206Z,0.00
2017-11-14T02:40:10.216Z,0.00
2017-11-14T02:41:10.231Z,0.00
2017-11-14T02:42:10.248Z,0.00
2017-11-14T02:43:10.267Z,0.00
2017-11-14T02:44:10.279Z,0.00
2017-11-14T02:45:10.293Z,0.00
2017-11-14T02:46:10.305Z,0.00
2017-11-14T02:47:10.322Z,0.00
2017-11-14T02:48:10.338Z,0.00
2017-11-14T02:49:10.354Z,0.00
2017-11-14T02:50:10.369Z,0.00
2017-11-14T02:51:10.382Z,0.00
2017-11-14T02:52:10.399Z,0.00
2017-11-14T02:53:10.413Z,0.00
2017-11-14T02:54:10.429Z,0.00
2017-11-14T02:55:10.443Z,0.00
2017-11-14T02:56:10.463Z,0.00
2017-11-14T02:57:10.479Z,0.00
2017-11-14T02:58:10.488Z,0.00
2017-11-14T02:59:10.510Z,0.00
2017-11-14T03:00:10.520Z,0.00
2017-11-14T03:01:10.539Z,0.00
2017-11-14T03:02:10.554Z,0.00
2017-11-14T03:03:10.564Z,0.00
2017-11-14T03:04:10.581Z,0.00
2017-11-14T03:05:10.600Z,0.00
2017-11-14T03:06:10.612Z,0.00
2017-11-14T03:07:10.625Z,0.00
2017-11-14T03:08:10.641Z,0.00
2017-11-14T03:09:10.655Z,0.00
2017-11-14T03:10:10.672Z,0.00
2017-11-14T03:11:10.688Z,0.00
2017-11-14T03:12:10.700Z,0.00
2017-11-14T03:13:10.718Z,0.00
2017-11-14T03:14:10.729Z,0.00
2017-11-14T03:15:10.746Z,0.00
2017-11-14T03:16:10.760Z,0.00
2017-11-14T03:17:10.776Z,0.00
2017-11-14T03:18:10.792Z,0.00
2017-11-14T03:19:10.807Z,0.00
2017-11-14T03:20:10.830Z,0.00
2017-11-14T03:21:10.836Z,0.00
2017-11-14T03:22:10.852Z,0.00
2017-11-14T03:23:10.869Z,0.00
2017-11-14T03:24:10.883Z,0.00
2017-11-14T03:25:10.898Z,0.00
2017-11-14T03:26:10.913Z,0.00
2017-11-14T03:27:10.929Z,0.00
2017-11-14T03:28:10.940Z,0.00
2017-11-14T03:29:10.963Z,0.00
2017-11-14T03:30:10.973Z,0.00
2017-11-14T03:31:10.990Z,0.00
2017-11-14T03:32:11.004Z,0.00
2017-11-14T03:33:11.017Z,0.00
2017-11-14T03:34:11.032Z,0.00
2017-11-14T03:35:11.055Z,0.00
2017-11-14T03:36:11.062Z,0.00
2017-11-14T03:37:11.079Z,0.00
2017-11-14T03:38:11.095Z,0.00
2017-11-14T03:39:11.115Z,0.00
2017-11-14T03:40:11.123Z,0.00
2017-11-14T03:41:11.135Z,0.00
2017-11-14T03:42:11.152Z,0.00
2017-11-14T03:43:11.165Z,0.00
2017-11-14T03:44:11.182Z,0.00
2017-11-14T03:45:11.198Z,0.00
2017-11-14T03:46:11.210Z,0.00
2017-11-14T03:47:11.225Z,0.00
2017-11-14T03:48:11.241Z,0.00
2017-11-14T03:49:11.257Z,0.00
2017-11-14T03:50:11.271Z,0.00
2017-11-14T03:51:11.284Z,0.00
2017-11-14T03:52:11.302Z,0.00
2017-11-14T03:53:11.315Z,0.00
2017-11-14T03:54:11.331Z,0.00
2017-11-14T03:55:11.348Z,0.00
2017-11-14T03:56:11.361Z,0.00
2017-11-14T03:57:11.377Z,0.00
2017-11-14T03:58:11.395Z,0.00
2017-11-14T03:59:11.405Z,0.00
2017-11-14T04:00:11.418Z,0.00
2017-11-14T04:01:11.434Z,0.00
2017-11-14T04:02:11.449Z,0.00
2017-11-14T04:03:11.467Z,0.00
2017-11-14T04:04:11.480Z,0.00
2017-11-14T04:05:11.494Z,0.00
2017-11-14T04:06:11.510Z,0.00
2017-11-14T04:07:11.528Z,0.00
2017-11-14T04:08:11.541Z,0.00
2017-11-14T04:09:11.553Z,0.00
2017-11-14T04:10:11.569Z,0.00
2017-11-14T04:11:11.586Z,0.00
2017-11-14T04:12:11.599Z,0.00
2017-11-14T04:13:11.616Z,0.00
2017-11-14T04:14:11.630Z,0.00
2017-11-14T04:15:11.646Z,0.00
2017-11-14T04:16:11.662Z,0.00
2017-11-14T04:17:11.672Z,0.00
2017-11-14T04:18:11.689Z,0.00
2017-11-14T04:19:11.706Z,0.00
2017-11-14T04:20:11.721Z,0.00
2017-11-14T04:21:11.733Z,0.00
2017-11-14T04:22:11.751Z,0.00
2017-11-14T04:23:11.765Z,0.00
2017-11-14T04:24:11.778Z,0.00
2017-11-14T04:25:11.793Z,0.00
2017-11-14T04:26:11.808Z,0.00
2017-11-14T04:27:11.822Z,0.00
2017-11-14T04:28:11.843Z,0.00
2017-11-14T04:29:11.852Z,0.00
2017-11-14T04:30:11.867Z,0.00
2017-11-14T04:31:11.883Z,0.00
2017-11-14T04:32:11.899Z,0.00
2017-11-14T04:33:11.911Z,0.00
2017-11-14T04:34:11.929Z,0.00
2017-11-14T04:35:11.942Z,0.00
2017-11-14T04:36:11.957Z,0.00
2017-11-14T04:37:11.972Z,0.00
2017-11-14T04:38:11.989Z,0.00
2017-11-14T04:39:12.005Z,0.00
2017-11-14T04:40:12.018Z,0.00
2017-11-14T04:41:12.034Z,0.00
2017-11-14T04:42:12.050Z,0.00
2017-11-14T04:43:12.063Z,0.00
2017-11-14T04:44:12.077Z,0.00
2017-11-14T04:45:12.096Z,0.00
2017-11-14T04:46:12.106Z,0.00
2017-11-14T04:47:12.119Z,0.00
2017-11-14T04:48:12.136Z,0.00
2017-11-14T04:49:12.149Z,0.00
2017-11-14T04:50:12.169Z,0.00
2017-11-14T04:51:12.183Z,0.00
2017-11-14T04:52:12.195Z,0.00
2017-11-14T04:53:12.211Z,0.00
2017-11-14T04:54:12.225Z,0.00
2017-11-14T04:55:12.240Z,0.00
2017-11-14T04:56:12.255Z,0.00
2017-11-14T04:57:12.271Z,0.00
2017-11-14T04:58:12.286Z,0.00
2017-11-14T04:59:12.300Z,0.00
2017-11-14T05:00:12.316Z,0.00
2017-11-14T05:01:12.330Z,0.00
2017-11-14T05:02:12.344Z,0.00
2017-11-14T05:03:12.360Z,0.00
2017-11-14T05:04:12.381Z,0.00
2017-11-14T05:05:12.392Z,0.00
2017-11-14T05:06:12.404Z,0.00
2017-11-14T05:07:12.421Z,0.00
2017-11-14T05:08:12.436Z,0.00
2017-11-14T05:09:12.449Z,0.00
2017-11-14T05:10:12.467Z,0.00
2017-11-14T05:11:12.482Z,0.00
2017-11-14T05:12:12.495Z,0.00
2017-11-14T05:13:12.509Z,0.00
2017-11-14T05:14:12.524Z,0.00
2017-11-14T05:15:12.538Z,0.00
2017-11-14T05:16:12.556Z,0.00
2017-11-14T05:17:12.569Z,0.00
2017-11-14T05:18:12.582Z,0.00
2017-11-14T05:19:12.600Z,0.00
2017-11-14T05:20:12.617Z,0.00
2017-11-14T05:21:12.628Z,0.00
2017-11-14T05:22:12.642Z,0.00
2017-11-14T05:23:12.658Z,0.00
2017-11-14T05:24:12.687Z,0.00
2017-11-14T05:25:12.689Z,0.00
2017-11-14T05:26:12.704Z,0.00
2017-11-14T05:27:12.719Z,0.00
2017-11-14T05:28:12.735Z,0.00
2017-11-14T05:29:12.748Z,0.00
2017-11-14T05:30:12.763Z,0.00
2017-11-14T05:31:12.778Z,0.00
2017-11-14T05:32:12.794Z,0.00
2017-11-14T05:33:12.807Z,0.00
2017-11-14T05:34:12.824Z,0.00
2017-11-14T05:35:12.839Z,0.00
2017-11-14T05:36:12.852Z,0.00
2017-11-14T05:37:12.878Z,0.00
2017-11-14T05:38:12.884Z,0.00
2017-11-14T05:39:12.900Z,0.00
2017-11-14T05:40:12.913Z,0.00
2017-11-14T05:41:12.931Z,0.00
2017-11-14T05:42:12.943Z,0.00
2017-11-14T05:43:12.959Z,0.00
2017-11-14T05:44:12.973Z,0.00
2017-11-14T05:45:12.988Z,0.00
2017-11-14T05:46:13.004Z,0.00
2017-11-14T05:47:13.020Z,0.00
2017-11-14T05:48:13.034Z,0.00
2017-11-14T05:49:13.053Z,0.00
2017-11-14T05:50:13.074Z,0.00
2017-11-14T05:51:13.082Z,0.00
2017-11-14T05:52:13.097Z,0.00
2017-11-14T05:53:13.109Z,0.00
2017-11-14T05:54:13.123Z,0.00
2017-11-14T05:55:13.141Z,0.00
2017-11-14T05:56:13.152Z,0.00
2017-11-14T05:57:13.170Z,0.00
2017-11-14T05:58:13.184Z,0.00
2017-11-14T05:59:13.198Z,4.00
2017-11-14T06:00:13.219Z,4.00
2017-11-14T06:01:13.226Z,4.00
2017-11-14T06:02:13.243Z,0.00
2017-11-14T06:03:13.280Z,0.00
2017-11-14T06:04:13.274Z,0.00
2017-11-14T06:05:13.292Z,4.00
2017-11-14T06:06:13.300Z,4.00
2017-11-14T06:07:13.327Z,4.00
2017-11-14T06:08:13.336Z,4.00
2017-11-14T06:09:13.347Z,4.00
2017-11-14T06:10:13.362Z,8.00
2017-11-14T06:11:13.376Z,8.00
2017-11-14T06:12:13.391Z,8.00
2017-11-14T06:13:13.406Z,8.00
2017-11-14T06:14:13.422Z,12.00
2017-11-14T06:15:13.437Z,16.00
2017-11-14T06:16:13.451Z,16.00
2017-11-14T06:17:13.466Z,16.00
2017-11-14T06:18:13.482Z,20.00
2017-11-14T06:19:13.496Z,20.00
2017-11-14T06:20:13.512Z,28.00
2017-11-14T06:21:13.525Z,28.00
2017-11-14T06:22:13.540Z,32.00
2017-11-14T06:23:13.558Z,44.00
2017-11-14T06:24:13.571Z,48.00
2017-11-14T06:25:13.596Z,56.00
2017-11-14T06:26:13.599Z,68.00
2017-11-14T06:27:13.617Z,76.00
2017-11-14T06:28:13.629Z,84.00
2017-11-14T06:29:13.645Z,88.00
2017-11-14T06:30:13.659Z,96.00
2017-11-14T06:31:13.688Z,108.00
2017-11-14T06:32:13.690Z,120.00
2017-11-14T06:33:13.707Z,136.00
2017-11-14T06:34:13.723Z,144.00
2017-11-14T06:35:13.735Z,164.00
2017-11-14T06:36:13.750Z,168.00
2017-11-14T06:37:13.768Z,176.00
2017-11-14T06:38:13.785Z,188.00
2017-11-14T06:39:13.795Z,208.00
2017-11-14T06:40:13.808Z,232.00
2017-11-14T06:41:13.821Z,244.00
2017-11-14T06:42:13.837Z,256.00
2017-11-14T06:43:13.853Z,284.00
2017-11-14T06:44:13.867Z,304.00
2017-11-14T06:45:13.880Z,312.00
2017-11-14T06:46:13.896Z,336.00
2017-11-14T06:47:13.916Z,348.00
2017-11-14T06:48:13.927Z,352.00
2017-11-14T06:49:13.943Z,380.00
2017-11-14T06:50:13.969Z,408.00
2017-11-14T06:51:13.974Z,452.00
2017-11-14T06:52:13.984Z,504.00
2017-11-14T06:53:14.001Z,568.00
2017-11-14T06:54:14.016Z,584.00
2017-11-14T06:55:14.031Z,628.00
2017-11-14T06:56:14.045Z,624.00
2017-11-14T06:57:14.059Z,596.00
2017-11-14T06:58:14.075Z,616.00
2017-11-14T06:59:14.088Z,660.00
2017-11-14T07:00:14.109Z,700.00
2017-11-14T07:01:14.119Z,764.00
2017-11-14T07:02:14.138Z,840.00
2017-11-14T07:03:14.153Z,932.00
2017-11-14T07:04:14.161Z,1020.00
2017-11-14T07:05:14.175Z,1160.00
2017-11-14T07:06:14.193Z,1196.00
2017-11-14T07:07:14.205Z,1196.00
2017-11-14T07:08:14.223Z,1304.00
2017-11-14T07:09:14.234Z,1340.00
2017-11-14T07:10:14.252Z,1376.00
2017-11-14T07:11:14.266Z,1376.00
2017-11-14T07:12:14.281Z,1468.00
2017-11-14T07:13:14.295Z,1600.00
2017-11-14T07:14:14.313Z,1736.00
2017-11-14T07:15:14.334Z,1744.00
2017-11-14T07:16:14.341Z,1864.00
2017-11-14T07:17:14.355Z,2104.00
2017-11-14T07:18:14.371Z,2288.00
2017-11-14T07:19:14.385Z,2444.00
2017-11-14T07:20:14.400Z,2864.00
2017-11-14T07:21:14.415Z,3032.00
2017-11-14T07:22:14.435Z,3200.00
2017-11-14T07:23:14.445Z,3352.00
2017-11-14T07:24:14.461Z,3672.00
2017-11-14T07:25:14.473Z,3964.00
2017-11-14T07:26:14.492Z,4040.00
2017-11-14T07:27:14.504Z,4288.00
2017-11-14T07:28:14.519Z,3932.00
2017-11-14T07:29:14.533Z,3904.00
2017-11-14T07:30:14.548Z,3540.00
2017-11-14T07:31:14.572Z,3268.00
2017-11-14T07:32:14.582Z,3432.00
2017-11-14T07:33:14.610Z,3496.00
2017-11-14T07:34:14.608Z,3328.00
2017-11-14T07:35:14.627Z,3628.00
2017-11-14T07:36:14.649Z,4008.00
2017-11-14T07:37:14.655Z,4048.00
2017-11-14T07:38:14.672Z,4196.00
2017-11-14T07:39:14.688Z,4256.00
2017-11-14T07:40:14.702Z,4148.00
2017-11-14T07:41:14.718Z,4232.00
2017-11-14T07:42:14.736Z,4224.00
2017-11-14T07:43:14.773Z,4172.00
2017-11-14T07:44:14.764Z,4108.00
2017-11-14T07:45:14.781Z,4068.00
2017-11-14T07:46:14.798Z,4032.00
2017-11-14T07:47:14.949Z,3956.00
2017-11-14T07:48:14.827Z,3868.00
2017-11-14T07:49:14.841Z,3784.00
2017-11-14T07:50:14.859Z,3716.00
2017-11-14T07:51:14.871Z,3676.00
2017-11-14T07:52:14.886Z,3656.00
2017-11-14T07:53:14.903Z,3648.00
2017-11-14T07:54:14.917Z,3632.00
2017-11-14T07:55:14.931Z,3628.00
2017-11-14T07:56:14.948Z,3596.00
2017-11-14T07:57:14.963Z,3568.00
2017-11-14T07:58:14.981Z,3544.00
2017-11-14T07:59:14.994Z,3524.00
2017-11-14T08:00:15.013Z,3536.00
2017-11-14T08:01:15.028Z,3604.00
2017-11-14T08:02:15.040Z,3732.00
2017-11-14T08:03:15.055Z,3960.00
2017-11-14T08:04:15.073Z,4280.00
2017-11-14T08:05:15.088Z,4644.00
2017-11-14T08:06:15.105Z,5016.00
2017-11-14T08:07:15.118Z,5372.00
2017-11-14T08:08:15.133Z,5604.00
2017-11-14T08:09:15.149Z,5640.00
2017-11-14T08:10:15.162Z,5548.00
2017-11-14T08:11:15.180Z,5416.00
2017-11-14T08:12:15.196Z,5252.00
2017-11-14T08:13:15.211Z,5108.00
2017-11-14T08:14:15.224Z,4976.00
2017-11-14T08:15:15.244Z,4908.00
2017-11-14T08:16:15.258Z,4884.00
2017-11-14T08:17:15.270Z,4896.00
2017-11-14T08:18:15.290Z,4952.00
2017-11-14T08:19:15.303Z,5024.00
2017-11-14T08:20:15.320Z,5068.00
2017-11-14T08:21:15.335Z,5108.00
2017-11-14T08:22:15.351Z,5140.00
2017-11-14T08:23:15.364Z,5176.00
2017-11-14T08:24:15.383Z,5228.00
2017-11-14T08:25:15.397Z,5288.00
2017-11-14T08:26:15.413Z,5368.00
2017-11-14T08:27:15.432Z,5488.00
2017-11-14T08:28:15.442Z,5592.00
2017-11-14T08:29:15.458Z,5656.00
2017-11-14T08:30:15.481Z,5704.00
2017-11-14T08:31:15.491Z,5840.00
2017-11-14T08:32:15.506Z,6212.00
2017-11-14T08:33:15.521Z,6580.00
2017-11-14T08:34:15.561Z,6920.00
2017-11-14T08:35:15.553Z,7292.00
2017-11-14T08:36:15.568Z,7440.00
2017-11-14T08:37:15.583Z,7476.00
2017-11-14T08:38:15.603Z,7676.00
2017-11-14T08:39:15.615Z,7900.00
2017-11-14T08:40:15.631Z,8224.00
2017-11-14T08:41:15.646Z,8568.00
2017-11-14T08:42:15.662Z,8648.00
2017-11-14T08:43:15.681Z,8324.00
2017-11-14T08:44:15.697Z,8100.00
2017-11-14T08:45:15.712Z,8144.00
2017-11-14T08:46:15.725Z,7996.00
2017-11-14T08:47:15.742Z,7740.00
2017-11-14T08:48:15.760Z,7504.00
2017-11-14T08:49:15.774Z,7292.00
2017-11-14T08:50:15.806Z,7608.00
2017-11-14T08:51:15.808Z,8304.00
2017-11-14T08:52:15.824Z,9172.00
2017-11-14T08:53:15.837Z,9968.00
2017-11-14T08:54:15.855Z,10708.00
2017-11-14T08:55:15.870Z,11296.00
2017-11-14T08:56:15.898Z,11608.00
2017-11-14T08:57:15.904Z,12176.00
2017-11-14T08:58:15.920Z,12028.00
2017-11-14T08:59:15.937Z,12088.00
2017-11-14T09:00:15.957Z,12092.00
2017-11-14T09:01:15.969Z,11844.00
2017-11-14T09:02:15.984Z,11548.00
2017-11-14T09:03:16.005Z,11012.00
2017-11-14T09:04:16.023Z,10356.00
2017-11-14T09:05:16.036Z,9676.00
2017-11-14T09:06:16.055Z,9100.00
2017-11-14T09:07:16.070Z,8632.00
2017-11-14T09:08:16.087Z,8124.00
2017-11-14T09:09:16.101Z,7488.00
2017-11-14T09:10:16.118Z,6920.00
2017-11-14T09:11:16.135Z,6568.00
2017-11-14T09:12:16.152Z,6328.00
2017-11-14T09:13:16.170Z,6212.00
2017-11-14T09:14:16.187Z,6252.00
2017-11-14T09:15:16.207Z,6436.00
2017-11-14T09:16:16.220Z,6808.00
2017-11-14T09:17:16.240Z,7236.00
2017-11-14T09:18:16.251Z,7624.00
2017-11-14T09:19:16.270Z,8028.00
2017-11-14T09:20:16.285Z,8232.00
2017-11-14T09:21:16.304Z,8320.00
2017-11-14T09:22:16.322Z,8312.00
2017-11-14T09:23:16.336Z,8220.00
2017-11-14T09:24:16.354Z,8132.00
2017-11-14T09:25:16.371Z,8032.00
2017-11-14T09:26:16.384Z,7956.00
2017-11-14T09:27:16.404Z,8068.00
2017-11-14T09:28:16.420Z,8384.00
2017-11-14T09:29:16.455Z,8816.00
2017-11-14T09:30:16.453Z,9224.00
2017-11-14T09:31:16.469Z,9536.00
2017-11-14T09:32:16.484Z,9816.00
2017-11-14T09:33:16.503Z,10100.00
2017-11-14T09:34:16.519Z,10332.00
2017-11-14T09:35:16.537Z,10460.00
2017-11-14T09:36:16.554Z,10472.00
2017-11-14T09:37:16.570Z,10368.00
2017-11-14T09:38:16.592Z,10160.00
2017-11-14T09:39:16.602Z,9896.00
2017-11-14T09:40:16.620Z,9592.00
2017-11-14T09:41:16.640Z,9272.00
2017-11-14T09:42:16.656Z,8972.00
2017-11-14T09:43:16.674Z,8716.00
2017-11-14T09:44:16.689Z,8532.00
2017-11-14T09:45:16.706Z,8416.00
2017-11-14T09:46:16.724Z,8356.00
2017-11-14T09:47:16.746Z,8340.00
2017-11-14T09:48:16.760Z,8388.00
2017-11-14T09:49:16.773Z,8444.00
2017-11-14T09:50:16.791Z,8436.00
2017-11-14T09:51:16.805Z,8312.00
2017-11-14T09:52:16.821Z,8128.00
2017-11-14T09:53:16.837Z,7932.00
2017-11-14T09:54:16.859Z,7776.00
2017-11-14T09:55:16.876Z,7540.00
2017-11-14T09:56:16.891Z,7088.00
2017-11-14T09:57:16.906Z,6196.00
2017-11-14T09:58:16.924Z,5524.00
2017-11-14T09:59:16.954Z,5272.00
2017-11-14T10:00:16.956Z,5416.00
2017-11-14T10:01:16.973Z,5448.00
2017-11-14T10:02:16.998Z,5376.00
2017-11-14T10:03:17.031Z,5344.00
2017-11-14T10:04:17.025Z,5484.00
2017-11-14T10:05:17.045Z,5572.00
2017-11-14T10:06:17.061Z,5780.00
2017-11-14T10:07:17.076Z,5868.00
2017-11-14T10:08:17.092Z,6236.00
2017-11-14T10:09:17.108Z,6624.00
2017-11-14T10:10:17.125Z,6732.00
2017-11-14T10:11:17.141Z,6412.00
2017-11-14T10:12:17.160Z,5816.00
2017-11-14T10:13:17.180Z,5532.00
2017-11-14T10:14:17.191Z,5344.00
2017-11-14T10:15:17.208Z,4764.00
2017-11-14T10:16:17.226Z,4456.00
2017-11-14T10:17:17.245Z,3844.00
2017-11-14T10:18:17.259Z,3816.00
2017-11-14T10:19:17.275Z,3848.00
2017-11-14T10:20:17.291Z,3864.00
2017-11-14T10:21:17.309Z,3908.00
2017-11-14T10:22:17.325Z,3484.00
2017-11-14T10:23:17.342Z,3416.00
2017-11-14T10:24:17.363Z,3596.00
2017-11-14T10:25:17.373Z,3824.00
2017-11-14T10:26:17.390Z,4032.00
2017-11-14T10:27:17.412Z,3812.00
2017-11-14T10:28:17.427Z,4316.00
2017-11-14T10:29:17.442Z,4660.00
2017-11-14T10:30:17.457Z,5276.00
2017-11-14T10:31:17.477Z,5372.00
2017-11-14T10:32:17.491Z,4940.00
2017-11-14T10:33:17.510Z,5428.00
2017-11-14T10:34:17.529Z,6008.00
2017-11-14T10:35:17.541Z,5316.00
2017-11-14T10:36:17.558Z,5544.00
2017-11-14T10:37:17.575Z,5948.00
2017-11-14T10:38:17.599Z,5776.00
2017-11-14T10:39:17.608Z,4748.00
2017-11-14T10:40:17.641Z,4216.00
2017-11-14T10:41:17.640Z,3756.00
2017-11-14T10:42:17.655Z,2908.00
2017-11-14T10:43:17.675Z,2872.00
2017-11-14T10:44:17.690Z,2896.00
2017-11-14T10:45:17.707Z,2824.00
2017-11-14T10:46:17.725Z,2992.00
2017-11-14T10:47:17.740Z,3136.00
2017-11-14T10:48:17.757Z,2656.00
2017-11-14T10:49:17.789Z,2868.00
2017-11-14T10:50:17.792Z,2696.00
2017-11-14T10:51:17.806Z,2760.00
2017-11-14T10:52:17.821Z,2972.00
2017-11-14T10:53:17.842Z,3384.00
2017-11-14T10:54:17.852Z,4012.00
2017-11-14T10:55:17.871Z,3900.00
2017-11-14T10:56:17.888Z,3460.00
2017-11-14T10:57:17.903Z,3744.00
2017-11-14T10:58:17.921Z,3300.00
2017-11-14T10:59:17.936Z,3288.00
2017-11-14T11:00:17.958Z,3652.00
2017-11-14T11:01:17.973Z,3904.00
2017-11-14T11:02:17.987Z,3960.00
2017-11-14T11:03:18.004Z,4408.00
2017-11-14T11:04:18.018Z,3932.00
2017-11-14T11:05:18.034Z,3952.00
2017-11-14T11:06:18.053Z,4288.00
2017-11-14T11:07:18.068Z,4552.00
2017-11-14T11:08:18.089Z,3772.00
2017-11-14T11:09:18.103Z,3524.00
2017-11-14T11:10:18.125Z,4352.00
2017-11-14T11:11:18.134Z,4984.00
2017-11-14T11:12:18.152Z,5416.00
2017-11-14T11:13:18.169Z,5008.00
2017-11-14T11:14:18.185Z,5320.00
2017-11-14T11:15:18.203Z,6036.00
2017-11-14T11:16:18.219Z,6044.00
2017-11-14T11:17:18.234Z,5712.00
2017-11-14T11:18:18.252Z,5536.00
2017-11-14T11:19:18.268Z,5132.00
2017-11-14T11:20:18.288Z,5020.00
2017-11-14T11:21:18.302Z,5332.00
2017-11-14T11:22:18.319Z,5688.00
2017-11-14T11:23:18.337Z,6316.00
2017-11-14T11:24:18.353Z,6904.00
2017-11-14T11:25:18.372Z,7064.00
2017-11-14T11:26:18.383Z,8220.00
2017-11-14T11:27:18.402Z,9716.00
2017-11-14T11:28:18.418Z,10124.00
2017-11-14T11:29:18.432Z,9952.00
2017-11-14T11:30:18.452Z,10212.00
2017-11-14T11:31:18.476Z,9532.00
2017-11-14T11:32:18.492Z,9756.00
2017-11-14T11:33:18.503Z,9960.00
2017-11-14T11:34:18.519Z,10356.00
2017-11-14T11:35:18.537Z,9552.00
2017-11-14T11:36:18.556Z,8424.00
2017-11-14T11:37:18.568Z,7712.00
2017-11-14T11:38:18.585Z,7380.00
2017-11-14T11:39:18.604Z,7772.00
2017-11-14T11:40:18.621Z,7660.00
2017-11-14T11:41:18.641Z,7112.00
2017-11-14T11:42:18.659Z,7260.00
2017-11-14T11:43:18.674Z,7208.00
2017-11-14T11:44:18.699Z,6324.00
2017-11-14T11:45:18.709Z,6876.00
2017-11-14T11:46:18.725Z,7668.00
2017-11-14T11:47:18.744Z,8832.00
2017-11-14T11:48:18.761Z,7504.00
2017-11-14T11:49:18.787Z,7200.00
2017-11-14T11:50:18.794Z,6688.00
2017-11-14T11:51:18.812Z,6444.00
2017-11-14T11:52:18.834Z,7132.00
2017-11-14T11:53:18.852Z,6912.00
2017-11-14T11:54:18.863Z,6956.00
2017-11-14T11:55:18.882Z,6364.00
2017-11-14T11:56:18.898Z,6904.00
2017-11-14T11:57:18.915Z,6792.00
2017-11-14T11:58:18.932Z,6668.00
2017-11-14T11:59:18.950Z,6568.00
2017-11-14T12:00:18.966Z,6764.00
2017-11-14T12:01:18.985Z,7580.00
2017-11-14T12:02:19.001Z,7188.00
2017-11-14T12:03:19.020Z,7232.00
2017-11-14T12:04:19.035Z,7616.00
2017-11-14T12:05:19.053Z,8704.00
2017-11-14T12:06:19.072Z,8936.00
2017-11-14T12:07:19.088Z,9096.00
2017-11-14T12:08:19.103Z,8516.00
2017-11-14T12:09:19.122Z,9200.00
2017-11-14T12:10:19.141Z,8528.00
2017-11-14T12:11:19.157Z,8180.00
2017-11-14T12:12:19.173Z,7788.00
2017-11-14T12:13:19.190Z,7784.00
2017-11-14T12:14:19.254Z,7732.00
2017-11-14T12:15:19.224Z,7848.00
2017-11-14T12:16:19.243Z,7864.00
2017-11-14T12:17:19.259Z,7424.00
2017-11-14T12:18:19.276Z,6896.00
2017-11-14T12:19:19.294Z,6576.00
2017-11-14T12:20:19.311Z,6392.00
2017-11-14T12:21:19.339Z,6096.00
2017-11-14T12:22:19.347Z,5888.00
2017-11-14T12:23:19.365Z,5700.00
2017-11-14T12:24:19.380Z,5644.00
2017-11-14T12:25:19.398Z,5704.00
2017-11-14T12:26:19.414Z,5844.00
2017-11-14T12:27:19.430Z,5968.00
2017-11-14T12:28:19.448Z,6028.00
2017-11-14T12:29:19.464Z,6028.00
2017-11-14T12:30:19.483Z,6044.00
2017-11-14T12:31:19.501Z,6080.00
2017-11-14T12:32:19.516Z,6064.00
2017-11-14T12:33:19.536Z,5940.00
2017-11-14T12:34:19.558Z,5896.00
2017-11-14T12:35:19.578Z,5800.00
2017-11-14T12:36:19.586Z,5752.00
2017-11-14T12:37:19.599Z,5784.00
2017-11-14T12:38:19.622Z,5724.00
2017-11-14T12:39:19.635Z,5660.00
2017-11-14T12:40:19.654Z,5628.00
2017-11-14T12:41:19.676Z,5568.00